sensor_id;sensor_type;location;lat;lon;timestamp;pressure;altitude;pressure_sealevel;temperature;humidity
77235;BME280;66253;50.526;14.974;2023-12-20T00:02:15;98734.48;;;4.71;96.16
77235;BME280;66253;50.526;14.974;2023-12-20T00:04:43;98735.14;;;4.72;96.17
77235;BME280;66253;50.526;14.974;2023-12-20T00:07:11;98733.41;;;4.73;96.06
77235;BME280;66253;50.526;14.974;2023-12-20T00:09:39;98734.23;;;4.73;95.75
77235;BME280;66253;50.526;14.974;2023-12-20T00:12:11;98729.86;;;4.72;95.70
77235;BME280;66253;50.526;14.974;2023-12-20T00:14:39;98724.74;;;4.74;95.94
77235;BME280;66253;50.526;14.974;2023-12-20T00:17:08;98724.38;;;4.75;95.77
77235;BME280;66253;50.526;14.974;2023-12-20T00:19:36;98721.45;;;4.75;95.91
77235;BME280;66253;50.526;14.974;2023-12-20T00:22:04;98718.41;;;4.75;95.84
77235;BME280;66253;50.526;14.974;2023-12-20T00:24:32;98716.38;;;4.75;95.94
77235;BME280;66253;50.526;14.974;2023-12-20T00:27:01;98709.29;;;4.75;95.71
77235;BME280;66253;50.526;14.974;2023-12-20T00:29:29;98704.04;;;4.76;95.92
77235;BME280;66253;50.526;14.974;2023-12-20T00:31:57;98700.64;;;4.75;96.18
77235;BME280;66253;50.526;14.974;2023-12-20T00:34:25;98695.08;;;4.75;96.00
77235;BME280;66253;50.526;14.974;2023-12-20T00:36:56;98698.48;;;4.75;96.22
77235;BME280;66253;50.526;14.974;2023-12-20T00:39:24;98697.98;;;4.74;96.06
77235;BME280;66253;50.526;14.974;2023-12-20T00:41:52;98700.52;;;4.74;95.96
77235;BME280;66253;50.526;14.974;2023-12-20T00:44:20;98697.01;;;4.74;95.68
77235;BME280;66253;50.526;14.974;2023-12-20T00:46:49;98701.17;;;4.75;96.18
77235;BME280;66253;50.526;14.974;2023-12-20T00:49:17;98698.25;;;4.76;96.05
77235;BME280;66253;50.526;14.974;2023-12-20T00:51:46;98693.63;;;4.77;96.20
77235;BME280;66253;50.526;14.974;2023-12-20T00:54:14;98687.17;;;4.78;96.20
77235;BME280;66253;50.526;14.974;2023-12-20T00:56:43;98694.23;;;4.79;96.10
77235;BME280;66253;50.526;14.974;2023-12-20T00:59:11;98690.02;;;4.79;96.02
77235;BME280;66253;50.526;14.974;2023-12-20T01:01:40;98686.81;;;4.78;96.24
77235;BME280;66253;50.526;14.974;2023-12-20T01:04:08;98678.23;;;4.78;96.30
77235;BME280;66253;50.526;14.974;2023-12-20T01:06:36;98673.60;;;4.75;96.23
77235;BME280;66253;50.526;14.974;2023-12-20T01:09:04;98671.84;;;4.76;96.22
77235;BME280;66253;50.526;14.974;2023-12-20T01:11:33;98675.92;;;4.76;96.27
77235;BME280;66253;50.526;14.974;2023-12-20T01:14:01;98673.55;;;4.76;96.35
77235;BME280;66253;50.526;14.974;2023-12-20T01:16:29;98671.59;;;4.75;96.32
77235;BME280;66253;50.526;14.974;2023-12-20T01:18:57;98675.14;;;4.75;96.39
77235;BME280;66253;50.526;14.974;2023-12-20T01:21:26;98668.71;;;4.74;96.53
77235;BME280;66253;50.526;14.974;2023-12-20T01:23:54;98656.44;;;4.72;96.60
77235;BME280;66253;50.526;14.974;2023-12-20T01:26:23;98645.46;;;4.72;96.27
77235;BME280;66253;50.526;14.974;2023-12-20T01:28:51;98643.65;;;4.71;96.51
77235;BME280;66253;50.526;14.974;2023-12-20T01:31:19;98638.43;;;4.70;96.73
77235;BME280;66253;50.526;14.974;2023-12-20T01:33:50;98632.53;;;4.69;96.71
77235;BME280;66253;50.526;14.974;2023-12-20T01:36:19;98638.16;;;4.69;96.49
77235;BME280;66253;50.526;14.974;2023-12-20T01:38:47;98640.36;;;4.69;96.60
77235;BME280;66253;50.526;14.974;2023-12-20T01:41:16;98641.89;;;4.68;96.72
77235;BME280;66253;50.526;14.974;2023-12-20T01:43:45;98643.88;;;4.69;96.97
77235;BME280;66253;50.526;14.974;2023-12-20T01:46:13;98643.37;;;4.69;96.78
77235;BME280;66253;50.526;14.974;2023-12-20T01:48:42;98638.79;;;4.69;96.57
77235;BME280;66253;50.526;14.974;2023-12-20T01:51:12;98629.98;;;4.70;96.49
77235;BME280;66253;50.526;14.974;2023-12-20T01:53:41;98617.34;;;4.69;96.59
77235;BME280;66253;50.526;14.974;2023-12-20T01:56:11;98616.15;;;4.69;96.60
77235;BME280;66253;50.526;14.974;2023-12-20T01:58:41;98606.70;;;4.68;96.53
77235;BME280;66253;50.526;14.974;2023-12-20T02:01:11;98602.11;;;4.69;96.78
77235;BME280;66253;50.526;14.974;2023-12-20T02:03:40;98601.23;;;4.69;96.65
77235;BME280;66253;50.526;14.974;2023-12-20T02:06:08;98597.52;;;4.70;96.71
77235;BME280;66253;50.526;14.974;2023-12-20T02:08:39;98597.84;;;4.69;97.05
77235;BME280;66253;50.526;14.974;2023-12-20T02:11:07;98601.05;;;4.70;96.28
77235;BME280;66253;50.526;14.974;2023-12-20T02:13:36;98606.80;;;4.70;96.77
77235;BME280;66253;50.526;14.974;2023-12-20T02:16:05;98612.87;;;4.71;96.78
77235;BME280;66253;50.526;14.974;2023-12-20T02:18:33;98613.52;;;4.71;96.50
77235;BME280;66253;50.526;14.974;2023-12-20T02:21:02;98605.95;;;4.70;96.48
77235;BME280;66253;50.526;14.974;2023-12-20T02:23:32;98599.34;;;4.70;96.81
77235;BME280;66253;50.526;14.974;2023-12-20T02:26:00;98596.53;;;4.69;96.54
77235;BME280;66253;50.526;14.974;2023-12-20T02:28:29;98600.10;;;4.69;96.48
77235;BME280;66253;50.526;14.974;2023-12-20T02:30:57;98597.40;;;4.68;96.51
77235;BME280;66253;50.526;14.974;2023-12-20T02:33:25;98592.73;;;4.67;96.35
77235;BME280;66253;50.526;14.974;2023-12-20T02:35:53;98592.16;;;4.64;96.46
77235;BME280;66253;50.526;14.974;2023-12-20T02:38:22;98597.44;;;4.64;96.82
77235;BME280;66253;50.526;14.974;2023-12-20T02:40:50;98596.09;;;4.63;96.15
77235;BME280;66253;50.526;14.974;2023-12-20T02:43:18;98591.77;;;4.62;96.24
77235;BME280;66253;50.526;14.974;2023-12-20T02:45:47;98589.77;;;4.61;96.45
77235;BME280;66253;50.526;14.974;2023-12-20T02:48:15;98584.73;;;4.60;96.42
77235;BME280;66253;50.526;14.974;2023-12-20T02:50:43;98582.73;;;4.59;96.82
77235;BME280;66253;50.526;14.974;2023-12-20T02:53:14;98583.21;;;4.60;96.86
77235;BME280;66253;50.526;14.974;2023-12-20T02:55:43;98581.02;;;4.60;96.98
77235;BME280;66253;50.526;14.974;2023-12-20T02:58:11;98581.54;;;4.59;96.78
77235;BME280;66253;50.526;14.974;2023-12-20T03:00:39;98580.88;;;4.59;96.79
77235;BME280;66253;50.526;14.974;2023-12-20T03:03:07;98582.25;;;4.58;96.40
77235;BME280;66253;50.526;14.974;2023-12-20T03:05:37;98585.64;;;4.58;96.62
77235;BME280;66253;50.526;14.974;2023-12-20T03:08:06;98585.15;;;4.58;97.02
77235;BME280;66253;50.526;14.974;2023-12-20T03:10:34;98582.56;;;4.59;97.20
77235;BME280;66253;50.526;14.974;2023-12-20T03:13:02;98579.73;;;4.58;96.90
77235;BME280;66253;50.526;14.974;2023-12-20T03:15:31;98580.41;;;4.58;96.92
77235;BME280;66253;50.526;14.974;2023-12-20T03:17:59;98580.63;;;4.57;96.82
77235;BME280;66253;50.526;14.974;2023-12-20T03:20:27;98577.58;;;4.57;96.96
77235;BME280;66253;50.526;14.974;2023-12-20T03:22:55;98571.64;;;4.58;97.07
77235;BME280;66253;50.526;14.974;2023-12-20T03:25:24;98570.27;;;4.58;97.08
77235;BME280;66253;50.526;14.974;2023-12-20T03:27:52;98569.69;;;4.60;97.11
77235;BME280;66253;50.526;14.974;2023-12-20T03:30:20;98569.73;;;4.59;97.12
77235;BME280;66253;50.526;14.974;2023-12-20T03:32:49;98572.80;;;4.58;97.17
77235;BME280;66253;50.526;14.974;2023-12-20T03:35:17;98570.55;;;4.59;97.18
77235;BME280;66253;50.526;14.974;2023-12-20T03:37:45;98572.73;;;4.60;97.28
77235;BME280;66253;50.526;14.974;2023-12-20T03:40:13;98573.70;;;4.61;97.06
77235;BME280;66253;50.526;14.974;2023-12-20T03:42:41;98575.21;;;4.61;97.08
77235;BME280;66253;50.526;14.974;2023-12-20T03:45:10;98576.05;;;4.61;97.07
77235;BME280;66253;50.526;14.974;2023-12-20T03:47:39;98569.30;;;4.61;96.74
77235;BME280;66253;50.526;14.974;2023-12-20T03:50:08;98569.85;;;4.60;97.00
77235;BME280;66253;50.526;14.974;2023-12-20T03:52:36;98570.20;;;4.59;96.91
77235;BME280;66253;50.526;14.974;2023-12-20T03:55:05;98568.27;;;4.57;96.82
77235;BME280;66253;50.526;14.974;2023-12-20T03:57:34;98569.89;;;4.55;96.65
77235;BME280;66253;50.526;14.974;2023-12-20T04:00:02;98571.51;;;4.53;96.69
77235;BME280;66253;50.526;14.974;2023-12-20T04:02:32;98578.77;;;4.53;97.02
77235;BME280;66253;50.526;14.974;2023-12-20T04:05:01;98580.98;;;4.53;96.77
77235;BME280;66253;50.526;14.974;2023-12-20T04:07:31;98584.39;;;4.52;96.83
77235;BME280;66253;50.526;14.974;2023-12-20T04:09:59;98582.41;;;4.51;97.11
77235;BME280;66253;50.526;14.974;2023-12-20T04:12:27;98577.83;;;4.52;97.01
77235;BME280;66253;50.526;14.974;2023-12-20T04:14:56;98574.45;;;4.51;96.98
77235;BME280;66253;50.526;14.974;2023-12-20T04:17:24;98570.92;;;4.51;97.10
77235;BME280;66253;50.526;14.974;2023-12-20T04:19:55;98570.59;;;4.51;96.94
77235;BME280;66253;50.526;14.974;2023-12-20T04:22:24;98567.75;;;4.49;97.02
77235;BME280;66253;50.526;14.974;2023-12-20T04:24:52;98577.59;;;4.48;96.81
77235;BME280;66253;50.526;14.974;2023-12-20T04:27:20;98577.48;;;4.47;96.61
77235;BME280;66253;50.526;14.974;2023-12-20T04:29:49;98584.09;;;4.47;97.01
77235;BME280;66253;50.526;14.974;2023-12-20T04:32:17;98583.08;;;4.46;96.75
77235;BME280;66253;50.526;14.974;2023-12-20T04:34:45;98583.76;;;4.47;97.04
77235;BME280;66253;50.526;14.974;2023-12-20T04:37:14;98583.23;;;4.47;97.23
77235;BME280;66253;50.526;14.974;2023-12-20T04:39:42;98586.27;;;4.47;97.07
77235;BME280;66253;50.526;14.974;2023-12-20T04:42:10;98584.94;;;4.46;97.30
77235;BME280;66253;50.526;14.974;2023-12-20T04:44:38;98589.98;;;4.47;97.26
77235;BME280;66253;50.526;14.974;2023-12-20T04:47:07;98588.30;;;4.47;97.19
77235;BME280;66253;50.526;14.974;2023-12-20T04:49:35;98590.49;;;4.47;96.89
77235;BME280;66253;50.526;14.974;2023-12-20T04:52:04;98588.64;;;4.47;96.95
77235;BME280;66253;50.526;14.974;2023-12-20T04:54:32;98587.77;;;4.48;97.29
77235;BME280;66253;50.526;14.974;2023-12-20T04:57:00;98584.70;;;4.48;97.12
77235;BME280;66253;50.526;14.974;2023-12-20T04:59:30;98578.73;;;4.49;97.35
77235;BME280;66253;50.526;14.974;2023-12-20T05:01:58;98582.26;;;4.50;97.07
77235;BME280;66253;50.526;14.974;2023-12-20T05:04:26;98584.13;;;4.50;97.28
77235;BME280;66253;50.526;14.974;2023-12-20T05:06:54;98580.23;;;4.51;96.96
77235;BME280;66253;50.526;14.974;2023-12-20T05:09:23;98575.14;;;4.51;97.22
77235;BME280;66253;50.526;14.974;2023-12-20T05:11:51;98581.35;;;4.52;97.26
77235;BME280;66253;50.526;14.974;2023-12-20T05:14:19;98582.05;;;4.52;96.94
77235;BME280;66253;50.526;14.974;2023-12-20T05:16:47;98584.40;;;4.52;97.37
77235;BME280;66253;50.526;14.974;2023-12-20T05:19:16;98588.80;;;4.52;97.08
77235;BME280;66253;50.526;14.974;2023-12-20T05:21:44;98593.35;;;4.52;97.43
77235;BME280;66253;50.526;14.974;2023-12-20T05:24:12;98590.87;;;4.51;97.52
77235;BME280;66253;50.526;14.974;2023-12-20T05:26:40;98595.96;;;4.50;97.33
77235;BME280;66253;50.526;14.974;2023-12-20T05:29:08;98596.33;;;4.50;97.29
77235;BME280;66253;50.526;14.974;2023-12-20T05:31:37;98597.65;;;4.50;97.32
77235;BME280;66253;50.526;14.974;2023-12-20T05:34:05;98591.63;;;4.49;97.26
77235;BME280;66253;50.526;14.974;2023-12-20T05:36:33;98593.94;;;4.50;97.34
77235;BME280;66253;50.526;14.974;2023-12-20T05:39:02;98595.46;;;4.50;97.44
77235;BME280;66253;50.526;14.974;2023-12-20T05:41:30;98595.66;;;4.49;97.46
77235;BME280;66253;50.526;14.974;2023-12-20T05:43:58;98599.60;;;4.48;97.17
77235;BME280;66253;50.526;14.974;2023-12-20T05:46:26;98604.21;;;4.47;97.31
77235;BME280;66253;50.526;14.974;2023-12-20T05:48:55;98604.27;;;4.45;97.30
77235;BME280;66253;50.526;14.974;2023-12-20T05:51:23;98603.48;;;4.44;97.34
77235;BME280;66253;50.526;14.974;2023-12-20T05:53:52;98609.59;;;4.43;97.35
77235;BME280;66253;50.526;14.974;2023-12-20T05:56:21;98608.59;;;4.42;97.53
77235;BME280;66253;50.526;14.974;2023-12-20T05:58:49;98607.94;;;4.43;97.64
77235;BME280;66253;50.526;14.974;2023-12-20T06:01:17;98608.23;;;4.43;97.52
77235;BME280;66253;50.526;14.974;2023-12-20T06:03:45;98602.30;;;4.44;97.18
77235;BME280;66253;50.526;14.974;2023-12-20T06:06:13;98597.08;;;4.44;97.58
77235;BME280;66253;50.526;14.974;2023-12-20T06:08:42;98594.55;;;4.43;97.31
77235;BME280;66253;50.526;14.974;2023-12-20T06:11:10;98591.03;;;4.42;97.26
77235;BME280;66253;50.526;14.974;2023-12-20T06:13:38;98591.93;;;4.41;97.20
77235;BME280;66253;50.526;14.974;2023-12-20T06:16:07;98589.23;;;4.41;97.29
77235;BME280;66253;50.526;14.974;2023-12-20T06:18:36;98598.23;;;4.40;97.34
77235;BME280;66253;50.526;14.974;2023-12-20T06:21:04;98603.68;;;4.39;97.26
77235;BME280;66253;50.526;14.974;2023-12-20T06:23:33;98608.30;;;4.38;97.18
77235;BME280;66253;50.526;14.974;2023-12-20T06:26:01;98605.27;;;4.38;97.09
77235;BME280;66253;50.526;14.974;2023-12-20T06:28:30;98603.61;;;4.37;97.17
77235;BME280;66253;50.526;14.974;2023-12-20T06:30:58;98608.17;;;4.37;97.25
77235;BME280;66253;50.526;14.974;2023-12-20T06:33:26;98606.06;;;4.35;97.12
77235;BME280;66253;50.526;14.974;2023-12-20T06:35:55;98606.81;;;4.33;96.82
77235;BME280;66253;50.526;14.974;2023-12-20T06:38:23;98612.29;;;4.31;97.36
77235;BME280;66253;50.526;14.974;2023-12-20T06:40:51;98610.73;;;4.27;96.98
77235;BME280;66253;50.526;14.974;2023-12-20T06:43:19;98615.53;;;4.26;97.22
77235;BME280;66253;50.526;14.974;2023-12-20T06:45:47;98614.41;;;4.25;97.31
77235;BME280;66253;50.526;14.974;2023-12-20T06:48:16;98616.80;;;4.24;97.38
77235;BME280;66253;50.526;14.974;2023-12-20T06:50:46;98619.67;;;4.24;97.55
77235;BME280;66253;50.526;14.974;2023-12-20T06:53:14;98625.97;;;4.22;97.56
77235;BME280;66253;50.526;14.974;2023-12-20T06:55:43;98635.66;;;4.22;97.24
77235;BME280;66253;50.526;14.974;2023-12-20T06:58:11;98635.89;;;4.20;97.30
77235;BME280;66253;50.526;14.974;2023-12-20T07:00:39;98638.63;;;4.19;97.32
77235;BME280;66253;50.526;14.974;2023-12-20T07:03:08;98645.55;;;4.19;97.92
77235;BME280;66253;50.526;14.974;2023-12-20T07:05:37;98642.84;;;4.19;97.93
77235;BME280;66253;50.526;14.974;2023-12-20T07:08:06;98648.74;;;4.19;97.65
77235;BME280;66253;50.526;14.974;2023-12-20T07:10:34;98652.51;;;4.19;97.67
77235;BME280;66253;50.526;14.974;2023-12-20T07:13:03;98657.40;;;4.19;97.66
77235;BME280;66253;50.526;14.974;2023-12-20T07:15:31;98658.13;;;4.17;97.61
77235;BME280;66253;50.526;14.974;2023-12-20T07:18:00;98661.89;;;4.16;97.68
77235;BME280;66253;50.526;14.974;2023-12-20T07:20:28;98668.27;;;4.18;97.88
77235;BME280;66253;50.526;14.974;2023-12-20T07:22:56;98666.34;;;4.19;97.94
77235;BME280;66253;50.526;14.974;2023-12-20T07:25:24;98666.87;;;4.19;97.64
77235;BME280;66253;50.526;14.974;2023-12-20T07:27:52;98670.41;;;4.19;97.58
77235;BME280;66253;50.526;14.974;2023-12-20T07:30:21;98671.30;;;4.18;97.51
77235;BME280;66253;50.526;14.974;2023-12-20T07:32:49;98676.10;;;4.16;97.66
77235;BME280;66253;50.526;14.974;2023-12-20T07:35:17;98687.93;;;4.16;97.65
77235;BME280;66253;50.526;14.974;2023-12-20T07:37:46;98683.73;;;4.16;97.72
77235;BME280;66253;50.526;14.974;2023-12-20T07:40:14;98683.55;;;4.16;97.96
77235;BME280;66253;50.526;14.974;2023-12-20T07:42:42;98681.32;;;4.16;97.86
77235;BME280;66253;50.526;14.974;2023-12-20T07:45:11;98682.98;;;4.17;98.20
77235;BME280;66253;50.526;14.974;2023-12-20T07:47:39;98686.18;;;4.18;97.93
77235;BME280;66253;50.526;14.974;2023-12-20T07:50:08;98689.85;;;4.19;98.27
77235;BME280;66253;50.526;14.974;2023-12-20T07:52:36;98688.30;;;4.20;97.95
77235;BME280;66253;50.526;14.974;2023-12-20T07:55:08;98685.58;;;4.20;98.05
77235;BME280;66253;50.526;14.974;2023-12-20T07:57:36;98688.55;;;4.22;98.28
77235;BME280;66253;50.526;14.974;2023-12-20T08:00:06;98692.02;;;4.24;97.89
77235;BME280;66253;50.526;14.974;2023-12-20T08:02:34;98689.13;;;4.25;98.04
77235;BME280;66253;50.526;14.974;2023-12-20T08:05:03;98695.80;;;4.27;98.09
77235;BME280;66253;50.526;14.974;2023-12-20T08:07:32;98692.71;;;4.28;97.85
77235;BME280;66253;50.526;14.974;2023-12-20T08:10:00;98695.48;;;4.31;98.27
77235;BME280;66253;50.526;14.974;2023-12-20T08:12:29;98692.36;;;4.32;98.15
77235;BME280;66253;50.526;14.974;2023-12-20T08:14:58;98688.23;;;4.34;98.05
77235;BME280;66253;50.526;14.974;2023-12-20T08:17:26;98689.16;;;4.37;98.07
77235;BME280;66253;50.526;14.974;2023-12-20T08:19:54;98693.48;;;4.39;98.20
77235;BME280;66253;50.526;14.974;2023-12-20T08:22:22;98691.56;;;4.40;98.03
77235;BME280;66253;50.526;14.974;2023-12-20T08:24:51;98687.77;;;4.42;98.09
77235;BME280;66253;50.526;14.974;2023-12-20T08:27:19;98686.70;;;4.43;97.99
77235;BME280;66253;50.526;14.974;2023-12-20T08:29:47;98685.67;;;4.44;97.84
77235;BME280;66253;50.526;14.974;2023-12-20T08:32:16;98686.48;;;4.44;98.20
77235;BME280;66253;50.526;14.974;2023-12-20T08:34:44;98692.39;;;4.45;98.01
77235;BME280;66253;50.526;14.974;2023-12-20T08:37:15;98687.68;;;4.44;98.16
77235;BME280;66253;50.526;14.974;2023-12-20T08:39:43;98692.40;;;4.45;98.21
77235;BME280;66253;50.526;14.974;2023-12-20T08:42:12;98692.40;;;4.44;97.81
77235;BME280;66253;50.526;14.974;2023-12-20T08:44:40;98693.20;;;4.46;98.12
77235;BME280;66253;50.526;14.974;2023-12-20T08:47:08;98693.52;;;4.46;97.98
77235;BME280;66253;50.526;14.974;2023-12-20T08:49:36;98690.11;;;4.46;98.47
77235;BME280;66253;50.526;14.974;2023-12-20T08:52:05;98698.88;;;4.48;98.01
77235;BME280;66253;50.526;14.974;2023-12-20T08:54:33;98698.80;;;4.50;98.11
77235;BME280;66253;50.526;14.974;2023-12-20T08:57:02;98705.86;;;4.51;98.22
77235;BME280;66253;50.526;14.974;2023-12-20T08:59:31;98709.23;;;4.51;98.05
77235;BME280;66253;50.526;14.974;2023-12-20T09:01:59;98704.98;;;4.52;98.50
77235;BME280;66253;50.526;14.974;2023-12-20T09:04:27;98702.56;;;4.53;98.07
77235;BME280;66253;50.526;14.974;2023-12-20T09:06:56;98700.97;;;4.55;98.16
77235;BME280;66253;50.526;14.974;2023-12-20T09:09:24;98698.36;;;4.56;98.08
77235;BME280;66253;50.526;14.974;2023-12-20T09:11:52;98695.83;;;4.56;97.92
77235;BME280;66253;50.526;14.974;2023-12-20T09:14:20;98691.47;;;4.56;98.14
77235;BME280;66253;50.526;14.974;2023-12-20T09:16:49;98699.38;;;4.61;98.08
77235;BME280;66253;50.526;14.974;2023-12-20T09:19:17;98699.73;;;4.64;98.14
77235;BME280;66253;50.526;14.974;2023-12-20T09:21:45;98701.34;;;4.66;98.08
77235;BME280;66253;50.526;14.974;2023-12-20T09:24:13;98701.65;;;4.67;98.02
77235;BME280;66253;50.526;14.974;2023-12-20T09:26:42;98704.98;;;4.68;98.26
77235;BME280;66253;50.526;14.974;2023-12-20T09:29:10;98704.41;;;4.70;97.45
77235;BME280;66253;50.526;14.974;2023-12-20T09:31:38;98703.38;;;4.70;97.80
77235;BME280;66253;50.526;14.974;2023-12-20T09:34:07;98699.23;;;4.73;98.05
77235;BME280;66253;50.526;14.974;2023-12-20T09:36:35;98694.11;;;4.78;97.91
77235;BME280;66253;50.526;14.974;2023-12-20T09:39:03;98691.11;;;4.81;97.98
77235;BME280;66253;50.526;14.974;2023-12-20T09:41:34;98685.98;;;4.90;98.19
77235;BME280;66253;50.526;14.974;2023-12-20T09:44:06;98690.21;;;5.03;98.41
77235;BME280;66253;50.526;14.974;2023-12-20T09:46:36;98693.88;;;5.12;98.32
77235;BME280;66253;50.526;14.974;2023-12-20T09:49:07;98698.35;;;5.23;98.64
77235;BME280;66253;50.526;14.974;2023-12-20T09:51:36;98697.02;;;5.34;98.63
77235;BME280;66253;50.526;14.974;2023-12-20T09:54:05;98693.04;;;5.44;98.90
77235;BME280;66253;50.526;14.974;2023-12-20T09:56:33;98699.48;;;5.52;98.50
77235;BME280;66253;50.526;14.974;2023-12-20T09:59:02;98703.60;;;5.58;98.49
77235;BME280;66253;50.526;14.974;2023-12-20T10:01:30;98701.40;;;5.62;98.73
77235;BME280;66253;50.526;14.974;2023-12-20T10:04:00;98699.21;;;5.61;97.89
77235;BME280;66253;50.526;14.974;2023-12-20T10:06:33;98694.89;;;5.64;97.89
77235;BME280;66253;50.526;14.974;2023-12-20T10:09:01;98689.31;;;5.71;97.96
77235;BME280;66253;50.526;14.974;2023-12-20T10:11:29;98684.50;;;5.80;97.65
77235;BME280;66253;50.526;14.974;2023-12-20T10:14:01;98677.33;;;5.88;97.64
77235;BME280;66253;50.526;14.974;2023-12-20T10:16:29;98674.60;;;5.97;97.35
77235;BME280;66253;50.526;14.974;2023-12-20T10:18:58;98667.77;;;6.06;97.57
77235;BME280;66253;50.526;14.974;2023-12-20T10:21:27;98667.30;;;6.08;97.26
77235;BME280;66253;50.526;14.974;2023-12-20T10:23:56;98664.77;;;6.08;96.55
77235;BME280;66253;50.526;14.974;2023-12-20T10:26:25;98665.60;;;6.05;96.11
77235;BME280;66253;50.526;14.974;2023-12-20T10:28:54;98661.16;;;6.02;95.81
77235;BME280;66253;50.526;14.974;2023-12-20T10:31:31;98655.98;;;6.00;96.03
77235;BME280;66253;50.526;14.974;2023-12-20T10:34:01;98655.11;;;5.97;95.92
77235;BME280;66253;50.526;14.974;2023-12-20T10:36:31;98656.52;;;5.96;95.83
77235;BME280;66253;50.526;14.974;2023-12-20T10:39:00;98654.49;;;5.96;95.40
77235;BME280;66253;50.526;14.974;2023-12-20T10:41:30;98653.57;;;5.97;95.65
77235;BME280;66253;50.526;14.974;2023-12-20T10:44:00;98654.63;;;6.00;96.05
77235;BME280;66253;50.526;14.974;2023-12-20T10:46:29;98659.63;;;6.02;95.60
77235;BME280;66253;50.526;14.974;2023-12-20T10:48:57;98659.42;;;6.02;95.46
77235;BME280;66253;50.526;14.974;2023-12-20T10:51:26;98662.41;;;6.00;95.00
77235;BME280;66253;50.526;14.974;2023-12-20T10:53:55;98664.55;;;5.98;94.57
77235;BME280;66253;50.526;14.974;2023-12-20T10:56:23;98658.09;;;5.95;94.14
77235;BME280;66253;50.526;14.974;2023-12-20T10:58:52;98652.41;;;5.93;94.45
77235;BME280;66253;50.526;14.974;2023-12-20T11:01:22;98647.14;;;5.93;94.45
77235;BME280;66253;50.526;14.974;2023-12-20T11:03:52;98651.98;;;5.95;94.37
77235;BME280;66253;50.526;14.974;2023-12-20T11:06:29;98649.38;;;5.96;94.93
77235;BME280;66253;50.526;14.974;2023-12-20T11:09:08;98649.15;;;6.01;94.53
77235;BME280;66253;50.526;14.974;2023-12-20T11:11:52;98645.66;;;6.07;94.34
77235;BME280;66253;50.526;14.974;2023-12-20T11:14:27;98640.04;;;6.11;94.51
77235;BME280;66253;50.526;14.974;2023-12-20T11:17:08;98637.79;;;6.12;94.18
77235;BME280;66253;50.526;14.974;2023-12-20T11:19:39;98625.02;;;6.13;94.32
77235;BME280;66253;50.526;14.974;2023-12-20T11:22:29;98617.42;;;6.20;94.26
77235;BME280;66253;50.526;14.974;2023-12-20T11:25:04;98611.45;;;6.24;93.38
77235;BME280;66253;50.526;14.974;2023-12-20T11:27:33;98606.87;;;6.31;93.39
77235;BME280;66253;50.526;14.974;2023-12-20T11:30:04;98602.42;;;6.39;93.50
77235;BME280;66253;50.526;14.974;2023-12-20T11:32:33;98599.24;;;6.45;92.92
77235;BME280;66253;50.526;14.974;2023-12-20T11:35:16;98596.37;;;6.48;91.96
77235;BME280;66253;50.526;14.974;2023-12-20T11:37:44;98590.80;;;6.51;92.02
77235;BME280;66253;50.526;14.974;2023-12-20T11:40:15;98590.36;;;6.56;91.85
77235;BME280;66253;50.526;14.974;2023-12-20T11:42:44;98589.48;;;6.61;91.27
77235;BME280;66253;50.526;14.974;2023-12-20T11:45:15;98586.08;;;6.64;90.94
77235;BME280;66253;50.526;14.974;2023-12-20T11:47:45;98585.23;;;6.68;90.94
77235;BME280;66253;50.526;14.974;2023-12-20T11:50:14;98577.40;;;6.68;90.19
77235;BME280;66253;50.526;14.974;2023-12-20T11:52:42;98570.05;;;6.69;90.14
77235;BME280;66253;50.526;14.974;2023-12-20T11:55:10;98566.15;;;6.69;90.08
77235;BME280;66253;50.526;14.974;2023-12-20T11:57:38;98563.13;;;6.72;90.27
77235;BME280;66253;50.526;14.974;2023-12-20T12:00:09;98562.94;;;6.75;89.74
77235;BME280;66253;50.526;14.974;2023-12-20T12:02:37;98562.41;;;6.79;89.97
77235;BME280;66253;50.526;14.974;2023-12-20T12:05:08;98567.45;;;6.83;89.65
77235;BME280;66253;50.526;14.974;2023-12-20T12:07:36;98570.01;;;6.87;88.98
77235;BME280;66253;50.526;14.974;2023-12-20T12:10:06;98566.27;;;6.93;89.28
77235;BME280;66253;50.526;14.974;2023-12-20T12:12:34;98562.64;;;7.01;88.97
77235;BME280;66253;50.526;14.974;2023-12-20T12:15:03;98560.06;;;7.08;89.36
77235;BME280;66253;50.526;14.974;2023-12-20T12:17:32;98555.73;;;7.17;89.43
77235;BME280;66253;50.526;14.974;2023-12-20T12:20:05;98555.82;;;7.18;89.19
77235;BME280;66253;50.526;14.974;2023-12-20T12:22:34;98550.49;;;7.16;89.10
77235;BME280;66253;50.526;14.974;2023-12-20T12:25:11;98548.92;;;7.17;88.86
77235;BME280;66253;50.526;14.974;2023-12-20T12:27:41;98545.36;;;7.20;88.70
77235;BME280;66253;50.526;14.974;2023-12-20T12:30:10;98540.89;;;7.24;88.46
77235;BME280;66253;50.526;14.974;2023-12-20T12:32:39;98534.30;;;7.26;87.64
77235;BME280;66253;50.526;14.974;2023-12-20T12:35:09;98529.08;;;7.32;88.13
77235;BME280;66253;50.526;14.974;2023-12-20T12:37:39;98525.05;;;7.31;87.42
77235;BME280;66253;50.526;14.974;2023-12-20T12:40:09;98526.16;;;7.33;87.04
77235;BME280;66253;50.526;14.974;2023-12-20T12:42:37;98526.74;;;7.31;86.70
77235;BME280;66253;50.526;14.974;2023-12-20T12:45:08;98521.99;;;7.25;86.04
77235;BME280;66253;50.526;14.974;2023-12-20T12:47:37;98528.64;;;7.21;86.03
77235;BME280;66253;50.526;14.974;2023-12-20T12:50:07;98527.63;;;7.15;85.87
77235;BME280;66253;50.526;14.974;2023-12-20T12:52:35;98526.35;;;7.07;86.08
77235;BME280;66253;50.526;14.974;2023-12-20T12:55:04;98532.94;;;7.01;85.98
77235;BME280;66253;50.526;14.974;2023-12-20T12:57:32;98531.48;;;6.93;85.85
77235;BME280;66253;50.526;14.974;2023-12-20T13:00:01;98527.99;;;6.85;86.34
77235;BME280;66253;50.526;14.974;2023-12-20T13:02:30;98525.06;;;6.79;86.42
77235;BME280;66253;50.526;14.974;2023-12-20T13:04:58;98524.36;;;6.73;86.42
77235;BME280;66253;50.526;14.974;2023-12-20T13:07:26;98524.33;;;6.67;86.35
77235;BME280;66253;50.526;14.974;2023-12-20T13:09:54;98521.00;;;6.62;86.43